Coral Electra — PCAG — position and weather

sailwx.info

Track history (hours):
 
Tides and Currents Weather Stations Pressure Air Temp Water Temp Dewpoint Dewpoint Depression Visibility Wind Speed Wind Dir Waves Ship Positions

Coral Electra

Last reported at 2014-Sep-01 18:33 UTC. Time now 2014-Sep-01 18:58 UTC.
Position N 53°27' E 006°50'.

Length 14 m; draft 2 m.

Type: Port tender. MMSI: 244690019.

Date/timePositionNaut miles runAvg speedWind from/ knotsBaromVisibWave heightAir tempDewpointWater temp
2014-Sep-01 18:33N 53°27' E 006°50'0 0.1
2014-Sep-01 17:33N 53°27' E 006°49'1 1.2
2014-Sep-01 16:33N 53°28' E 006°50'1 1.2
2014-Sep-01 15:33N 53°27' E 006°50'0 0.0
2014-Sep-01 14:30N 53°27' E 006°50'0 0.0
2014-Sep-01 13:33N 53°27' E 006°50'0 0.0
2014-Sep-01 12:18N 53°27' E 006°50'0 0.0
2014-Sep-01 11:33N 53°27' E 006°50'0 0.0
2014-Sep-01 10:18N 53°27' E 006°50'0 0.0
2014-Sep-01 09:30N 53°27' E 006°50'0 0.0
2014-Sep-01 08:27N 53°27' E 006°50'0 0.0
2014-Sep-01 07:30N 53°27' E 006°50'0 0.0
2014-Sep-01 06:30N 53°27' E 006°50'0 0.1
2014-Sep-01 04:33N 53°27' E 006°49'0 0.2
2014-Sep-01 03:29N 53°27' E 006°50'0 0.0
2014-Sep-01 02:17N 53°27' E 006°50'0 0.0
2014-Sep-01 01:32N 53°27' E 006°50'0 0.0
2014-Sep-01 00:11N 53°27' E 006°50'0 0.0
2014-Aug-31 23:32N 53°27' E 006°50'0 0.0
2014-Aug-31 22:32N 53°27' E 006°50'0 0.0
2014-Aug-31 21:23N 53°27' E 006°50'0 0.0
2014-Aug-31 20:29N 53°27' E 006°50'0 0.0
2014-Aug-31 19:26N 53°27' E 006°50'0 0.0
2014-Aug-31 18:32N 53°27' E 006°50'0 0.0
2014-Aug-31 17:32N 53°27' E 006°50'0 0.0
2014-Aug-31 16:32N 53°27' E 006°50'0 0.0
2014-Aug-31 15:32N 53°27' E 006°50'0 0.0
2014-Aug-31 14:29N 53°27' E 006°50'0 0.0
2014-Aug-31 13:29N 53°27' E 006°50'0 0.0
2014-Aug-31 12:26N 53°27' E 006°50'0 0.0
2014-Aug-31 11:29N 53°27' E 006°50'0 0.0
2014-Aug-31 10:32N 53°27' E 006°50'0 0.0
2014-Aug-31 09:32N 53°27' E 006°50'0 0.0
2014-Aug-31 08:32N 53°27' E 006°50'0 0.0
2014-Aug-31 07:32N 53°27' E 006°50'0 0.0
2014-Aug-31 06:32N 53°27' E 006°50'0 0.0
2014-Aug-31 05:14N 53°27' E 006°50'0 0.0
2014-Aug-31 04:32N 53°27' E 006°50'0 0.0
2014-Aug-31 03:32N 53°27' E 006°50'0 0.0
2014-Aug-31 02:05N 53°27' E 006°50'0 0.0
2014-Aug-31 01:29N 53°27' E 006°50'0 0.0
2014-Aug-31 00:11N 53°27' E 006°50'0 0.0
2014-Aug-30 23:32N 53°27' E 006°50'0 0.0
2014-Aug-30 22:14N 53°27' E 006°50'0 0.0
2014-Aug-30 21:32N 53°27' E 006°50'0 0.0
2014-Aug-30 20:32N 53°27' E 006°50'0 0.0
2014-Aug-30 19:23N 53°27' E 006°50'0 0.0
2014-Aug-30 18:29N 53°27' E 006°50'0 0.0
2014-Aug-30 17:32N 53°27' E 006°50'0 0.0
2014-Aug-30 16:29N 53°27' E 006°50'0 0.0
2014-Aug-30 15:32N 53°27' E 006°50'0 0.0
2014-Aug-30 14:28N 53°27' E 006°50'3 2.9
2014-Aug-30 13:33N 53°29' E 006°48'3 2.2
2014-Aug-30 12:19N 53°27' E 006°50'0 0.0
2014-Aug-30 08:28N 53°27' E 006°50'0 0.0
2014-Aug-30 07:16N 53°27' E 006°50'0 0.0
2014-Aug-30 06:28N 53°27' E 006°50'0 0.0
2014-Aug-30 05:22N 53°27' E 006°50'0 0.0
2014-Aug-30 04:25N 53°27' E 006°50'0 0.0
2014-Aug-30 03:13N 53°27' E 006°50'0 0.0
2014-Aug-30 02:28N 53°27' E 006°50'0 0.0
2014-Aug-30 01:22N 53°27' E 006°50'0 0.0
2014-Aug-30 00:22N 53°27' E 006°50'0 0.0
2014-Aug-29 23:28N 53°27' E 006°50'0 0.0
2014-Aug-29 22:28N 53°27' E 006°50'0 0.0
2014-Aug-29 21:25N 53°27' E 006°50'0 0.0
2014-Aug-29 20:22N 53°27' E 006°50'0 0.0
2014-Aug-29 19:22N 53°27' E 006°50'0 0.0
2014-Aug-29 17:31N 53°27' E 006°50'0 0.0
2014-Aug-29 16:10N 53°27' E 006°50'0 0.0
2014-Aug-29 14:28N 53°27' E 006°50'0 0.0
2014-Aug-29 12:31N 53°27' E 006°50'0 0.0
2014-Aug-29 11:22N 53°27' E 006°50'0 0.0
2014-Aug-29 10:25N 53°27' E 006°50'0 0.0
2014-Aug-29 09:25N 53°27' E 006°50'0 0.0
2014-Aug-29 08:28N 53°27' E 006°50'0 0.0
2014-Aug-29 07:22N 53°27' E 006°50'0 0.0
2014-Aug-29 06:28N 53°27' E 006°50'8 6.0
2014-Aug-29 05:12N 53°32' E 006°40'711.2
2014-Aug-29 04:32N 53°27' E 006°49'0 0.2
2014-Aug-29 03:29N 53°27' E 006°50'0 0.0
2014-Aug-29 02:29N 53°27' E 006°50'0 0.0
2014-Aug-29 01:32N 53°27' E 006°50'0 0.0
2014-Aug-29 00:29N 53°27' E 006°50'0 0.0
2014-Aug-28 23:23N 53°27' E 006°50'0 0.0
2014-Aug-28 22:29N 53°27' E 006°50'0 0.0
2014-Aug-28 21:23N 53°27' E 006°50'0 0.0
2014-Aug-28 20:29N 53°27' E 006°50'0 0.0
2014-Aug-28 19:11N 53°27' E 006°50'0 0.0
2014-Aug-28 18:25N 53°27' E 006°50'0 0.1
2014-Aug-28 13:25N 53°27' E 006°49'7 5.3
2014-Aug-28 12:04N 53°32' E 006°41'814.6
2014-Aug-28 11:33N 53°27' E 006°50'0 0.1
2014-Aug-28 10:32N 53°27' E 006°50'6 1.4
2014-Aug-28 06:33N 53°30' E 006°42'5 4.7
2014-Aug-28 05:31N 53°28' E 006°50'1 1.3
2014-Aug-28 04:34N 53°27' E 006°49'0 0.1
2014-Aug-28 03:17N 53°27' E 006°50'0 0.0
2014-Aug-28 01:04N 53°27' E 006°50'0 0.0
2014-Aug-28 00:32N 53°27' E 006°50'0 0.0
2014-Aug-27 23:26N 53°27' E 006°50'0 0.0
2014-Aug-27 22:32N 53°27' E 006°50'0 0.0
2014-Aug-27 21:23N 53°27' E 006°50'0 0.0
2014-Aug-27 20:26N 53°27' E 006°50'0 0.0
2014-Aug-27 19:05N 53°27' E 006°50'0 0.0
2014-Aug-27 18:20N 53°27' E 006°50'4 1.4
2014-Aug-27 15:29N 53°29' E 006°45'4 1.9
2014-Aug-27 13:30N 53°27' E 006°49'1 0.9
2014-Aug-27 12:32N 53°27' E 006°50'1 0.8
2014-Aug-27 11:23N 53°27' E 006°50'0 0.0
2014-Aug-27 10:29N 53°27' E 006°50'6 3.0
2014-Aug-27 08:32N 53°32' E 006°45'6 5.7
2014-Aug-27 07:31N 53°27' E 006°50'0 0.0
2014-Aug-27 06:30N 53°27' E 006°50'9 6.5
2014-Aug-27 05:05N 53°33' E 006°38'917.1
2014-Aug-27 04:33N 53°27' E 006°49'0 0.2
2014-Aug-27 03:33N 53°27' E 006°50'0 0.0
2014-Aug-27 02:33N 53°27' E 006°50'0 0.0
2014-Aug-27 01:30N 53°27' E 006°50'0 0.0
2014-Aug-27 00:33N 53°27' E 006°50'0 0.0
2014-Aug-26 23:21N 53°27' E 006°50'0 0.0
2014-Aug-26 22:21N 53°27' E 006°50'0 0.0
2014-Aug-26 21:33N 53°27' E 006°50'0 0.0
2014-Aug-26 20:03N 53°27' E 006°50'0 0.0
2014-Aug-26 19:09N 53°27' E 006°50'0 0.0
2014-Aug-26 18:33N 53°27' E 006°50'0 0.1
2014-Aug-26 17:28N 53°27' E 006°50'4 3.4
2014-Aug-26 16:25N 53°30' E 006°47'3 1.8
2014-Aug-26 14:32N 53°27' E 006°50'5 1.6
2014-Aug-26 11:23N 53°31' E 006°44'5 5.3
2014-Aug-26 10:26N 53°27' E 006°50'0 0.3
2014-Aug-26 09:32N 53°27' E 006°49'0 0.1
2014-Aug-26 08:33N 53°27' E 006°49'0 0.0
2014-Aug-26 07:33N 53°27' E 006°49'0 0.1
2014-Aug-26 06:30N 53°27' E 006°49'3 3.3
2014-Aug-26 05:32N 53°30' E 006°47'3 3.0
2014-Aug-26 04:31N 53°27' E 006°49'0 0.2
2014-Aug-26 03:21N 53°27' E 006°50'0 0.0
2014-Aug-26 02:33N 53°27' E 006°50'0 0.0
2014-Aug-26 01:33N 53°27' E 006°50'0 0.0
2014-Aug-26 00:30N 53°27' E 006°50'0 0.0
2014-Aug-25 23:33N 53°27' E 006°50'0 0.0
2014-Aug-25 22:27N 53°27' E 006°50'0 0.0
2014-Aug-25 21:12N 53°27' E 006°50'0 0.0
2014-Aug-25 20:33N 53°27' E 006°50'0 0.0
2014-Aug-25 19:33N 53°27' E 006°50'0 0.0
2014-Aug-25 18:30N 53°27' E 006°50'0 0.1
2014-Aug-25 17:32N 53°27' E 006°50'2 1.8
2014-Aug-25 16:30N 53°29' E 006°49'1111.7
2014-Aug-25 15:33N 53°19' E 006°59'2 1.6
2014-Aug-25 14:33N 53°19' E 006°56'0 0.2
2014-Aug-25 13:33N 53°19' E 006°56'0 0.0
2014-Aug-25 12:27N 53°19' E 006°56'0 0.0
2014-Aug-25 11:21N 53°19' E 006°56'0 0.0
2014-Aug-25 10:33N 53°19' E 006°56'0 0.0
2014-Aug-25 09:27N 53°19' E 006°56'0 0.0
2014-Aug-25 08:30N 53°19' E 006°56'0 0.0
2014-Aug-25 07:33N 53°19' E 006°56'0 0.0
2014-Aug-25 06:33N 53°19' E 006°56'0 0.0
2014-Aug-25 05:33N 53°19' E 006°56'0 0.0
2014-Aug-25 04:33N 53°19' E 006°56'0 0.0
2014-Aug-25 03:24N 53°19' E 006°56'0 0.0
2014-Aug-25 02:27N 53°19' E 006°56'0 0.0
2014-Aug-25 01:33N 53°19' E 006°56'0 0.0
2014-Aug-25 00:33N 53°19' E 006°56'0 0.0
2014-Aug-24 23:30N 53°19' E 006°56'0 0.0
2014-Aug-24 22:30N 53°19' E 006°56'0 0.0
2014-Aug-24 21:33N 53°19' E 006°56'0 0.0
2014-Aug-24 20:33N 53°19' E 006°56'0 0.0
2014-Aug-24 19:33N 53°19' E 006°56'0 0.0
2014-Aug-24 18:24N 53°19' E 006°56'0 0.0
2014-Aug-24 17:33N 53°19' E 006°56'0 0.0
2014-Aug-24 16:24N 53°19' E 006°56'0 0.0
2014-Aug-24 15:33N 53°19' E 006°56'0 0.0
2014-Aug-24 14:33N 53°19' E 006°56'0 0.0
2014-Aug-24 13:33N 53°19' E 006°56'0 0.0
2014-Aug-24 12:33N 53°19' E 006°56'0 0.0
2014-Aug-24 11:30N 53°19' E 006°56'0 0.0
2014-Aug-24 10:30N 53°19' E 006°56'0 0.0
2014-Aug-24 09:30N 53°19' E 006°56'0 0.0
2014-Aug-24 08:27N 53°19' E 006°56'0 0.0
2014-Aug-24 07:27N 53°19' E 006°56'0 0.0
2014-Aug-24 06:30N 53°19' E 006°56'0 0.0
2014-Aug-24 05:33N 53°19' E 006°56'0 0.0
2014-Aug-24 04:33N 53°19' E 006°56'0 0.0
2014-Aug-24 03:33N 53°19' E 006°56'0 0.0
2014-Aug-24 02:33N 53°19' E 006°56'0 0.0
2014-Aug-24 01:33N 53°19' E 006°56'0 0.0
2014-Aug-24 00:33N 53°19' E 006°56'0 0.0
2014-Aug-23 23:33N 53°19' E 006°56'0 0.0
2014-Aug-23 22:33N 53°19' E 006°56'0 0.0
2014-Aug-23 21:33N 53°19' E 006°56'0 0.0
2014-Aug-23 20:33N 53°19' E 006°56'0 0.0
2014-Aug-23 19:24N 53°19' E 006°56'0 0.0
2014-Aug-23 03:30N 53°19' E 006°56'0 0.0
2014-Aug-23 02:33N 53°19' E 006°56'0 0.0
2014-Aug-23 01:33N 53°19' E 006°56'0 0.0
2014-Aug-23 00:33N 53°19' E 006°56'0 0.0
2014-Aug-22 23:21N 53°19' E 006°56'0 0.0
2014-Aug-22 22:33N 53°19' E 006°56'0 0.0
2014-Aug-22 21:33N 53°19' E 006°56'0 0.0
2014-Aug-22 20:33N 53°19' E 006°56'0 0.0
2014-Aug-22 19:27N 53°19' E 006°56'0 0.0
2014-Aug-22 18:33N 53°19' E 006°56'  
Track history (hours):
 
Tides and Currents Weather Stations Pressure Air Temp Water Temp Dewpoint Dewpoint Depression Visibility Wind Speed Wind Dir Waves Ship Positions

Coral Electra

Last reported at 2014-Sep-01 18:33 UTC. Time now 2014-Sep-01 18:58 UTC.
Position N 53°27' E 006°50'.

Length 14 m; draft 2 m.

Type: Port tender. MMSI: 244690019.

Date/timePositionNaut miles runAvg speedWind from/ knotsBaromVisibWave heightAir tempDewpointWater temp
2014-Sep-01 18:33N 53°27' E 006°50'0 0.1
2014-Sep-01 17:33N 53°27' E 006°49'1 1.2
2014-Sep-01 16:33N 53°28' E 006°50'1 1.2
2014-Sep-01 15:33N 53°27' E 006°50'0 0.0
2014-Sep-01 14:30N 53°27' E 006°50'0 0.0
2014-Sep-01 13:33N 53°27' E 006°50'0 0.0
2014-Sep-01 12:18N 53°27' E 006°50'0 0.0
2014-Sep-01 11:33N 53°27' E 006°50'0 0.0
2014-Sep-01 10:18N 53°27' E 006°50'0 0.0
2014-Sep-01 09:30N 53°27' E 006°50'0 0.0
2014-Sep-01 08:27N 53°27' E 006°50'0 0.0
2014-Sep-01 07:30N 53°27' E 006°50'0 0.0
2014-Sep-01 06:30N 53°27' E 006°50'0 0.1
2014-Sep-01 04:33N 53°27' E 006°49'0 0.2
2014-Sep-01 03:29N 53°27' E 006°50'0 0.0
2014-Sep-01 02:17N 53°27' E 006°50'0 0.0
2014-Sep-01 01:32N 53°27' E 006°50'0 0.0
2014-Sep-01 00:11N 53°27' E 006°50'0 0.0
2014-Aug-31 23:32N 53°27' E 006°50'0 0.0
2014-Aug-31 22:32N 53°27' E 006°50'0 0.0
2014-Aug-31 21:23N 53°27' E 006°50'0 0.0
2014-Aug-31 20:29N 53°27' E 006°50'0 0.0
2014-Aug-31 19:26N 53°27' E 006°50'0 0.0
2014-Aug-31 18:32N 53°27' E 006°50'0 0.0
2014-Aug-31 17:32N 53°27' E 006°50'0 0.0
2014-Aug-31 16:32N 53°27' E 006°50'0 0.0
2014-Aug-31 15:32N 53°27' E 006°50'0 0.0
2014-Aug-31 14:29N 53°27' E 006°50'0 0.0
2014-Aug-31 13:29N 53°27' E 006°50'0 0.0
2014-Aug-31 12:26N 53°27' E 006°50'0 0.0
2014-Aug-31 11:29N 53°27' E 006°50'0 0.0
2014-Aug-31 10:32N 53°27' E 006°50'0 0.0
2014-Aug-31 09:32N 53°27' E 006°50'0 0.0
2014-Aug-31 08:32N 53°27' E 006°50'0 0.0
2014-Aug-31 07:32N 53°27' E 006°50'0 0.0
2014-Aug-31 06:32N 53°27' E 006°50'0 0.0
2014-Aug-31 05:14N 53°27' E 006°50'0 0.0
2014-Aug-31 04:32N 53°27' E 006°50'0 0.0
2014-Aug-31 03:32N 53°27' E 006°50'0 0.0
2014-Aug-31 02:05N 53°27' E 006°50'0 0.0
2014-Aug-31 01:29N 53°27' E 006°50'0 0.0
2014-Aug-31 00:11N 53°27' E 006°50'0 0.0
2014-Aug-30 23:32N 53°27' E 006°50'0 0.0
2014-Aug-30 22:14N 53°27' E 006°50'0 0.0
2014-Aug-30 21:32N 53°27' E 006°50'0 0.0
2014-Aug-30 20:32N 53°27' E 006°50'0 0.0
2014-Aug-30 19:23N 53°27' E 006°50'0 0.0
2014-Aug-30 18:29N 53°27' E 006°50'0 0.0
2014-Aug-30 17:32N 53°27' E 006°50'0 0.0
2014-Aug-30 16:29N 53°27' E 006°50'0 0.0
2014-Aug-30 15:32N 53°27' E 006°50'0 0.0
2014-Aug-30 14:28N 53°27' E 006°50'3 2.9
2014-Aug-30 13:33N 53°29' E 006°48'3 2.2
2014-Aug-30 12:19N 53°27' E 006°50'0 0.0
2014-Aug-30 08:28N 53°27' E 006°50'0 0.0
2014-Aug-30 07:16N 53°27' E 006°50'0 0.0
2014-Aug-30 06:28N 53°27' E 006°50'0 0.0
2014-Aug-30 05:22N 53°27' E 006°50'0 0.0
2014-Aug-30 04:25N 53°27' E 006°50'0 0.0
2014-Aug-30 03:13N 53°27' E 006°50'0 0.0
2014-Aug-30 02:28N 53°27' E 006°50'0 0.0
2014-Aug-30 01:22N 53°27' E 006°50'0 0.0
2014-Aug-30 00:22N 53°27' E 006°50'0 0.0
2014-Aug-29 23:28N 53°27' E 006°50'0 0.0
2014-Aug-29 22:28N 53°27' E 006°50'0 0.0
2014-Aug-29 21:25N 53°27' E 006°50'0 0.0
2014-Aug-29 20:22N 53°27' E 006°50'0 0.0
2014-Aug-29 19:22N 53°27' E 006°50'0 0.0
2014-Aug-29 17:31N 53°27' E 006°50'0 0.0
2014-Aug-29 16:10N 53°27' E 006°50'0 0.0
2014-Aug-29 14:28N 53°27' E 006°50'0 0.0
2014-Aug-29 12:31N 53°27' E 006°50'0 0.0
2014-Aug-29 11:22N 53°27' E 006°50'0 0.0
2014-Aug-29 10:25N 53°27' E 006°50'0 0.0
2014-Aug-29 09:25N 53°27' E 006°50'0 0.0
2014-Aug-29 08:28N 53°27' E 006°50'0 0.0
2014-Aug-29 07:22N 53°27' E 006°50'0 0.0
2014-Aug-29 06:28N 53°27' E 006°50'8 6.0
2014-Aug-29 05:12N 53°32' E 006°40'711.2
2014-Aug-29 04:32N 53°27' E 006°49'0 0.2
2014-Aug-29 03:29N 53°27' E 006°50'0 0.0
2014-Aug-29 02:29N 53°27' E 006°50'0 0.0
2014-Aug-29 01:32N 53°27' E 006°50'0 0.0
2014-Aug-29 00:29N 53°27' E 006°50'0 0.0
2014-Aug-28 23:23N 53°27' E 006°50'0 0.0
2014-Aug-28 22:29N 53°27' E 006°50'0 0.0
2014-Aug-28 21:23N 53°27' E 006°50'0 0.0
2014-Aug-28 20:29N 53°27' E 006°50'0 0.0
2014-Aug-28 19:11N 53°27' E 006°50'0 0.0
2014-Aug-28 18:25N 53°27' E 006°50'0 0.1
2014-Aug-28 13:25N 53°27' E 006°49'7 5.3
2014-Aug-28 12:04N 53°32' E 006°41'814.6
2014-Aug-28 11:33N 53°27' E 006°50'0 0.1
2014-Aug-28 10:32N 53°27' E 006°50'6 1.4
2014-Aug-28 06:33N 53°30' E 006°42'5 4.7
2014-Aug-28 05:31N 53°28' E 006°50'1 1.3
2014-Aug-28 04:34N 53°27' E 006°49'0 0.1
2014-Aug-28 03:17N 53°27' E 006°50'0 0.0
2014-Aug-28 01:04N 53°27' E 006°50'0 0.0
2014-Aug-28 00:32N 53°27' E 006°50'0 0.0
2014-Aug-27 23:26N 53°27' E 006°50'0 0.0
2014-Aug-27 22:32N 53°27' E 006°50'0 0.0
2014-Aug-27 21:23N 53°27' E 006°50'0 0.0
2014-Aug-27 20:26N 53°27' E 006°50'0 0.0
2014-Aug-27 19:05N 53°27' E 006°50'0 0.0
2014-Aug-27 18:20N 53°27' E 006°50'4 1.4
2014-Aug-27 15:29N 53°29' E 006°45'4 1.9
2014-Aug-27 13:30N 53°27' E 006°49'1 0.9
2014-Aug-27 12:32N 53°27' E 006°50'1 0.8
2014-Aug-27 11:23N 53°27' E 006°50'0 0.0
2014-Aug-27 10:29N 53°27' E 006°50'6 3.0
2014-Aug-27 08:32N 53°32' E 006°45'6 5.7
2014-Aug-27 07:31N 53°27' E 006°50'0 0.0
2014-Aug-27 06:30N 53°27' E 006°50'9 6.5
2014-Aug-27 05:05N 53°33' E 006°38'917.1
2014-Aug-27 04:33N 53°27' E 006°49'0 0.2
2014-Aug-27 03:33N 53°27' E 006°50'0 0.0
2014-Aug-27 02:33N 53°27' E 006°50'0 0.0
2014-Aug-27 01:30N 53°27' E 006°50'0 0.0
2014-Aug-27 00:33N 53°27' E 006°50'0 0.0
2014-Aug-26 23:21N 53°27' E 006°50'0 0.0
2014-Aug-26 22:21N 53°27' E 006°50'0 0.0
2014-Aug-26 21:33N 53°27' E 006°50'0 0.0
2014-Aug-26 20:03N 53°27' E 006°50'0 0.0
2014-Aug-26 19:09N 53°27' E 006°50'0 0.0
2014-Aug-26 18:33N 53°27' E 006°50'0 0.1
2014-Aug-26 17:28N 53°27' E 006°50'4 3.4
2014-Aug-26 16:25N 53°30' E 006°47'3 1.8
2014-Aug-26 14:32N 53°27' E 006°50'5 1.6
2014-Aug-26 11:23N 53°31' E 006°44'5 5.3
2014-Aug-26 10:26N 53°27' E 006°50'0 0.3
2014-Aug-26 09:32N 53°27' E 006°49'0 0.1
2014-Aug-26 08:33N 53°27' E 006°49'0 0.0
2014-Aug-26 07:33N 53°27' E 006°49'0 0.1
2014-Aug-26 06:30N 53°27' E 006°49'3 3.3
2014-Aug-26 05:32N 53°30' E 006°47'3 3.0
2014-Aug-26 04:31N 53°27' E 006°49'0 0.2
2014-Aug-26 03:21N 53°27' E 006°50'0 0.0
2014-Aug-26 02:33N 53°27' E 006°50'0 0.0
2014-Aug-26 01:33N 53°27' E 006°50'0 0.0
2014-Aug-26 00:30N 53°27' E 006°50'0 0.0
2014-Aug-25 23:33N 53°27' E 006°50'0 0.0
2014-Aug-25 22:27N 53°27' E 006°50'0 0.0
2014-Aug-25 21:12N 53°27' E 006°50'0 0.0
2014-Aug-25 20:33N 53°27' E 006°50'0 0.0
2014-Aug-25 19:33N 53°27' E 006°50'0 0.0
2014-Aug-25 18:30N 53°27' E 006°50'0 0.1
2014-Aug-25 17:32N 53°27' E 006°50'2 1.8
2014-Aug-25 16:30N 53°29' E 006°49'1111.7
2014-Aug-25 15:33N 53°19' E 006°59'2 1.6
2014-Aug-25 14:33N 53°19' E 006°56'0 0.2
2014-Aug-25 13:33N 53°19' E 006°56'0 0.0
2014-Aug-25 12:27N 53°19' E 006°56'0 0.0
2014-Aug-25 11:21N 53°19' E 006°56'0 0.0
2014-Aug-25 10:33N 53°19' E 006°56'0 0.0
2014-Aug-25 09:27N 53°19' E 006°56'0 0.0
2014-Aug-25 08:30N 53°19' E 006°56'0 0.0
2014-Aug-25 07:33N 53°19' E 006°56'0 0.0
2014-Aug-25 06:33N 53°19' E 006°56'0 0.0
2014-Aug-25 05:33N 53°19' E 006°56'0 0.0
2014-Aug-25 04:33N 53°19' E 006°56'0 0.0
2014-Aug-25 03:24N 53°19' E 006°56'0 0.0
2014-Aug-25 02:27N 53°19' E 006°56'0 0.0
2014-Aug-25 01:33N 53°19' E 006°56'0 0.0
2014-Aug-25 00:33N 53°19' E 006°56'0 0.0
2014-Aug-24 23:30N 53°19' E 006°56'0 0.0
2014-Aug-24 22:30N 53°19' E 006°56'0 0.0
2014-Aug-24 21:33N 53°19' E 006°56'0 0.0
2014-Aug-24 20:33N 53°19' E 006°56'0 0.0
2014-Aug-24 19:33N 53°19' E 006°56'0 0.0
2014-Aug-24 18:24N 53°19' E 006°56'0 0.0
2014-Aug-24 17:33N 53°19' E 006°56'0 0.0
2014-Aug-24 16:24N 53°19' E 006°56'0 0.0
2014-Aug-24 15:33N 53°19' E 006°56'0 0.0
2014-Aug-24 14:33N 53°19' E 006°56'0 0.0
2014-Aug-24 13:33N 53°19' E 006°56'0 0.0
2014-Aug-24 12:33N 53°19' E 006°56'0 0.0
2014-Aug-24 11:30N 53°19' E 006°56'0 0.0
2014-Aug-24 10:30N 53°19' E 006°56'0 0.0
2014-Aug-24 09:30N 53°19' E 006°56'0 0.0
2014-Aug-24 08:27N 53°19' E 006°56'0 0.0
2014-Aug-24 07:27N 53°19' E 006°56'0 0.0
2014-Aug-24 06:30N 53°19' E 006°56'0 0.0
2014-Aug-24 05:33N 53°19' E 006°56'0 0.0
2014-Aug-24 04:33N 53°19' E 006°56'0 0.0
2014-Aug-24 03:33N 53°19' E 006°56'0 0.0
2014-Aug-24 02:33N 53°19' E 006°56'0 0.0
2014-Aug-24 01:33N 53°19' E 006°56'0 0.0
2014-Aug-24 00:33N 53°19' E 006°56'0 0.0
2014-Aug-23 23:33N 53°19' E 006°56'0 0.0
2014-Aug-23 22:33N 53°19' E 006°56'0 0.0
2014-Aug-23 21:33N 53°19' E 006°56'0 0.0
2014-Aug-23 20:33N 53°19' E 006°56'0 0.0
2014-Aug-23 19:24N 53°19' E 006°56'0 0.0
2014-Aug-23 03:30N 53°19' E 006°56'0 0.0
2014-Aug-23 02:33N 53°19' E 006°56'0 0.0
2014-Aug-23 01:33N 53°19' E 006°56'0 0.0
2014-Aug-23 00:33N 53°19' E 006°56'0 0.0
2014-Aug-22 23:21N 53°19' E 006°56'0 0.0
2014-Aug-22 22:33N 53°19' E 006°56'0 0.0
2014-Aug-22 21:33N 53°19' E 006°56'0 0.0
2014-Aug-22 20:33N 53°19' E 006°56'0 0.0
2014-Aug-22 19:27N 53°19' E 006°56'0 0.0
2014-Aug-22 18:33N 53°19' E 006°56'  

Dump ship's entire track history